sensor_id;sensor_type;location;lat;lon;timestamp;temperature;humidity
2723;DHT22;1369;53.216;10.396;2023-04-01T00:00:19;10.50;99.90
2723;DHT22;1369;53.216;10.396;2023-04-01T00:02:46;10.60;99.90
2723;DHT22;1369;53.216;10.396;2023-04-01T00:05:13;10.60;99.90
2723;DHT22;1369;53.216;10.396;2023-04-01T00:07:39;10.60;99.90
2723;DHT22;1369;53.216;10.396;2023-04-01T00:10:07;10.60;99.90
2723;DHT22;1369;53.216;10.396;2023-04-01T00:12:33;10.50;99.90
2723;DHT22;1369;53.216;10.396;2023-04-01T00:14:59;10.50;99.90
2723;DHT22;1369;53.216;10.396;2023-04-01T00:17:25;10.50;99.90
2723;DHT22;1369;53.216;10.396;2023-04-01T00:19:51;10.40;99.90
2723;DHT22;1369;53.216;10.396;2023-04-01T00:22:16;10.40;99.90
2723;DHT22;1369;53.216;10.396;2023-04-01T00:24:42;10.40;99.90
2723;DHT22;1369;53.216;10.396;2023-04-01T00:27:08;10.40;99.90
2723;DHT22;1369;53.216;10.396;2023-04-01T00:29:34;10.40;99.90
2723;DHT22;1369;53.216;10.396;2023-04-01T00:32:00;10.30;99.90
2723;DHT22;1369;53.216;10.396;2023-04-01T00:34:26;10.30;99.90
2723;DHT22;1369;53.216;10.396;2023-04-01T00:36:51;10.30;99.90
2723;DHT22;1369;53.216;10.396;2023-04-01T00:39:22;10.30;99.90
2723;DHT22;1369;53.216;10.396;2023-04-01T00:41:48;10.30;99.90
2723;DHT22;1369;53.216;10.396;2023-04-01T00:44:21;10.30;99.90
2723;DHT22;1369;53.216;10.396;2023-04-01T00:46:48;10.30;99.90
2723;DHT22;1369;53.216;10.396;2023-04-01T00:49:15;10.30;99.90
2723;DHT22;1369;53.216;10.396;2023-04-01T00:51:43;10.30;99.90
2723;DHT22;1369;53.216;10.396;2023-04-01T00:54:11;10.30;99.90
2723;DHT22;1369;53.216;10.396;2023-04-01T00:56:41;10.30;99.90
2723;DHT22;1369;53.216;10.396;2023-04-01T00:59:13;10.20;99.90
2723;DHT22;1369;53.216;10.396;2023-04-01T01:01:39;10.20;99.90
2723;DHT22;1369;53.216;10.396;2023-04-01T01:04:05;10.20;99.90
2723;DHT22;1369;53.216;10.396;2023-04-01T01:11:43;10.20;99.90
2723;DHT22;1369;53.216;10.396;2023-04-01T01:14:23;10.20;99.90
2723;DHT22;1369;53.216;10.396;2023-04-01T01:16:54;10.10;99.90
2723;DHT22;1369;53.216;10.396;2023-04-01T01:20:18;10.10;99.90
2723;DHT22;1369;53.216;10.396;2023-04-01T01:31:20;10.10;99.90
2723;DHT22;1369;53.216;10.396;2023-04-01T01:36:31;10.10;99.90
2723;DHT22;1369;53.216;10.396;2023-04-01T01:39:01;10.10;99.90
2723;DHT22;1369;53.216;10.396;2023-04-01T01:41:27;10.10;99.90
2723;DHT22;1369;53.216;10.396;2023-04-01T01:43:56;10.10;99.90
2723;DHT22;1369;53.216;10.396;2023-04-01T01:46:24;10.20;99.90
2723;DHT22;1369;53.216;10.396;2023-04-01T01:48:51;10.20;99.90
2723;DHT22;1369;53.216;10.396;2023-04-01T01:51:19;10.20;99.90
2723;DHT22;1369;53.216;10.396;2023-04-01T01:53:45;10.20;99.90
2723;DHT22;1369;53.216;10.396;2023-04-01T01:56:11;10.20;99.90
2723;DHT22;1369;53.216;10.396;2023-04-01T01:58:47;10.20;99.90
2723;DHT22;1369;53.216;10.396;2023-04-01T02:01:25;10.20;99.90
2723;DHT22;1369;53.216;10.396;2023-04-01T02:03:52;10.20;99.90
2723;DHT22;1369;53.216;10.396;2023-04-01T02:06:20;10.20;99.90
2723;DHT22;1369;53.216;10.396;2023-04-01T02:08:52;10.20;99.90
2723;DHT22;1369;53.216;10.396;2023-04-01T02:11:27;10.20;99.90
2723;DHT22;1369;53.216;10.396;2023-04-01T02:14:18;10.20;99.90
2723;DHT22;1369;53.216;10.396;2023-04-01T02:16:57;10.20;99.90
2723;DHT22;1369;53.216;10.396;2023-04-01T02:19:27;10.10;99.90
2723;DHT22;1369;53.216;10.396;2023-04-01T02:21:58;10.10;99.90
2723;DHT22;1369;53.216;10.396;2023-04-01T02:24:26;10.10;99.90
2723;DHT22;1369;53.216;10.396;2023-04-01T02:26:54;10.10;99.90
2723;DHT22;1369;53.216;10.396;2023-04-01T02:29:21;10.10;99.90
2723;DHT22;1369;53.216;10.396;2023-04-01T02:31:49;10.10;99.90
2723;DHT22;1369;53.216;10.396;2023-04-01T02:34:15;10.10;99.90
2723;DHT22;1369;53.216;10.396;2023-04-01T02:36:41;10.10;99.90
2723;DHT22;1369;53.216;10.396;2023-04-01T02:39:08;10.10;99.90
2723;DHT22;1369;53.216;10.396;2023-04-01T02:41:39;10.10;99.90
2723;DHT22;1369;53.216;10.396;2023-04-01T02:44:06;10.10;99.90
2723;DHT22;1369;53.216;10.396;2023-04-01T02:46:32;10.10;99.90
2723;DHT22;1369;53.216;10.396;2023-04-01T02:48:58;10.10;99.90
2723;DHT22;1369;53.216;10.396;2023-04-01T02:51:23;10.10;99.90
2723;DHT22;1369;53.216;10.396;2023-04-01T02:53:49;10.10;99.90
2723;DHT22;1369;53.216;10.396;2023-04-01T02:56:14;10.10;99.90
2723;DHT22;1369;53.216;10.396;2023-04-01T02:58:40;10.10;99.90
2723;DHT22;1369;53.216;10.396;2023-04-01T03:01:05;10.10;99.90
2723;DHT22;1369;53.216;10.396;2023-04-01T03:03:31;10.10;99.90
2723;DHT22;1369;53.216;10.396;2023-04-01T03:05:56;10.10;99.90
2723;DHT22;1369;53.216;10.396;2023-04-01T03:08:24;10.20;99.90
2723;DHT22;1369;53.216;10.396;2023-04-01T03:10:49;10.20;99.90
2723;DHT22;1369;53.216;10.396;2023-04-01T03:13:15;10.20;99.90
2723;DHT22;1369;53.216;10.396;2023-04-01T03:15:41;10.20;99.90
2723;DHT22;1369;53.216;10.396;2023-04-01T03:18:06;10.10;99.90
2723;DHT22;1369;53.216;10.396;2023-04-01T03:20:31;10.20;99.90
2723;DHT22;1369;53.216;10.396;2023-04-01T03:22:57;10.20;99.90
2723;DHT22;1369;53.216;10.396;2023-04-01T03:25:22;10.20;99.90
2723;DHT22;1369;53.216;10.396;2023-04-01T03:27:48;10.20;99.90
2723;DHT22;1369;53.216;10.396;2023-04-01T03:30:13;10.20;99.90
2723;DHT22;1369;53.216;10.396;2023-04-01T03:32:39;10.20;99.90
2723;DHT22;1369;53.216;10.396;2023-04-01T03:35:05;10.20;99.90
2723;DHT22;1369;53.216;10.396;2023-04-01T03:37:31;10.20;99.90
2723;DHT22;1369;53.216;10.396;2023-04-01T03:39:57;10.20;99.90
2723;DHT22;1369;53.216;10.396;2023-04-01T03:42:22;10.20;99.90
2723;DHT22;1369;53.216;10.396;2023-04-01T03:44:48;10.20;99.90
2723;DHT22;1369;53.216;10.396;2023-04-01T03:47:13;10.20;99.90
2723;DHT22;1369;53.216;10.396;2023-04-01T03:49:39;10.20;99.90
2723;DHT22;1369;53.216;10.396;2023-04-01T03:52:07;10.20;99.90
2723;DHT22;1369;53.216;10.396;2023-04-01T03:54:33;10.20;99.90
2723;DHT22;1369;53.216;10.396;2023-04-01T03:56:59;10.20;99.90
2723;DHT22;1369;53.216;10.396;2023-04-01T03:59:24;10.20;99.90
2723;DHT22;1369;53.216;10.396;2023-04-01T04:01:50;10.20;99.90
2723;DHT22;1369;53.216;10.396;2023-04-01T04:04:15;10.30;99.90
2723;DHT22;1369;53.216;10.396;2023-04-01T04:06:41;10.30;99.90
2723;DHT22;1369;53.216;10.396;2023-04-01T04:09:07;10.30;99.90
2723;DHT22;1369;53.216;10.396;2023-04-01T04:11:32;10.30;99.90
2723;DHT22;1369;53.216;10.396;2023-04-01T04:13:58;10.30;99.90
2723;DHT22;1369;53.216;10.396;2023-04-01T04:16:24;10.20;99.90
2723;DHT22;1369;53.216;10.396;2023-04-01T04:18:50;10.20;99.90
2723;DHT22;1369;53.216;10.396;2023-04-01T04:21:16;10.20;99.90
2723;DHT22;1369;53.216;10.396;2023-04-01T04:23:42;10.20;99.90
2723;DHT22;1369;53.216;10.396;2023-04-01T04:26:11;10.20;99.90
2723;DHT22;1369;53.216;10.396;2023-04-01T04:28:38;10.20;99.90
2723;DHT22;1369;53.216;10.396;2023-04-01T04:31:04;10.20;99.90
2723;DHT22;1369;53.216;10.396;2023-04-01T04:33:30;10.20;99.90
2723;DHT22;1369;53.216;10.396;2023-04-01T04:35:57;10.20;99.90
2723;DHT22;1369;53.216;10.396;2023-04-01T04:38:23;10.20;99.90
2723;DHT22;1369;53.216;10.396;2023-04-01T04:40:48;10.20;99.90
2723;DHT22;1369;53.216;10.396;2023-04-01T04:43:15;10.20;99.90
2723;DHT22;1369;53.216;10.396;2023-04-01T04:45:41;10.20;99.90
2723;DHT22;1369;53.216;10.396;2023-04-01T04:48:14;10.20;99.90
2723;DHT22;1369;53.216;10.396;2023-04-01T04:50:44;10.20;99.90
2723;DHT22;1369;53.216;10.396;2023-04-01T04:53:11;10.10;99.90
2723;DHT22;1369;53.216;10.396;2023-04-01T04:55:37;10.10;99.90
2723;DHT22;1369;53.216;10.396;2023-04-01T04:58:02;10.10;99.90
2723;DHT22;1369;53.216;10.396;2023-04-01T05:00:28;10.10;99.90
2723;DHT22;1369;53.216;10.396;2023-04-01T05:02:53;10.10;99.90
2723;DHT22;1369;53.216;10.396;2023-04-01T05:05:19;10.10;99.90
2723;DHT22;1369;53.216;10.396;2023-04-01T05:07:45;10.10;99.90
2723;DHT22;1369;53.216;10.396;2023-04-01T05:10:10;10.10;99.90
2723;DHT22;1369;53.216;10.396;2023-04-01T05:12:36;10.10;99.90
2723;DHT22;1369;53.216;10.396;2023-04-01T05:15:05;10.10;99.90
2723;DHT22;1369;53.216;10.396;2023-04-01T05:17:31;10.20;99.90
2723;DHT22;1369;53.216;10.396;2023-04-01T05:19:57;10.20;99.90
2723;DHT22;1369;53.216;10.396;2023-04-01T05:22:22;10.20;99.90
2723;DHT22;1369;53.216;10.396;2023-04-01T05:24:48;10.20;99.90
2723;DHT22;1369;53.216;10.396;2023-04-01T05:27:14;10.20;99.90
2723;DHT22;1369;53.216;10.396;2023-04-01T05:29:39;10.20;99.90
2723;DHT22;1369;53.216;10.396;2023-04-01T05:32:05;10.30;99.90
2723;DHT22;1369;53.216;10.396;2023-04-01T05:34:30;10.30;99.90
2723;DHT22;1369;53.216;10.396;2023-04-01T05:36:56;10.30;99.90
2723;DHT22;1369;53.216;10.396;2023-04-01T05:39:22;10.30;99.90
2723;DHT22;1369;53.216;10.396;2023-04-01T05:41:48;10.30;99.90
2723;DHT22;1369;53.216;10.396;2023-04-01T05:44:14;10.30;99.90
2723;DHT22;1369;53.216;10.396;2023-04-01T05:46:40;10.30;99.90
2723;DHT22;1369;53.216;10.396;2023-04-01T05:49:05;10.40;99.90
2723;DHT22;1369;53.216;10.396;2023-04-01T05:51:31;10.40;99.90
2723;DHT22;1369;53.216;10.396;2023-04-01T05:53:56;10.50;99.90
2723;DHT22;1369;53.216;10.396;2023-04-01T05:56:22;10.60;99.90
2723;DHT22;1369;53.216;10.396;2023-04-01T05:58:51;10.60;99.90
2723;DHT22;1369;53.216;10.396;2023-04-01T06:01:18;10.70;99.90
2723;DHT22;1369;53.216;10.396;2023-04-01T06:03:44;10.70;99.90
2723;DHT22;1369;53.216;10.396;2023-04-01T06:06:27;10.80;99.90
2723;DHT22;1369;53.216;10.396;2023-04-01T06:08:56;10.80;99.90
2723;DHT22;1369;53.216;10.396;2023-04-01T06:11:34;10.80;99.90
2723;DHT22;1369;53.216;10.396;2023-04-01T06:19:47;10.80;99.90
2723;DHT22;1369;53.216;10.396;2023-04-01T06:25:28;10.80;99.90
2723;DHT22;1369;53.216;10.396;2023-04-01T06:30:42;10.90;99.90
2723;DHT22;1369;53.216;10.396;2023-04-01T06:36:22;10.80;99.90
2723;DHT22;1369;53.216;10.396;2023-04-01T06:41:48;10.90;99.90
2723;DHT22;1369;53.216;10.396;2023-04-01T06:44:35;10.90;99.90
2723;DHT22;1369;53.216;10.396;2023-04-01T06:55:46;11.00;99.90
2723;DHT22;1369;53.216;10.396;2023-04-01T06:58:29;11.00;99.90
2723;DHT22;1369;53.216;10.396;2023-04-01T07:01:04;11.00;99.90
2723;DHT22;1369;53.216;10.396;2023-04-01T07:03:38;11.00;99.90
2723;DHT22;1369;53.216;10.396;2023-04-01T07:06:09;11.00;99.90
2723;DHT22;1369;53.216;10.396;2023-04-01T07:08:39;11.00;99.90
2723;DHT22;1369;53.216;10.396;2023-04-01T07:11:06;10.90;99.90
2723;DHT22;1369;53.216;10.396;2023-04-01T07:13:53;10.60;99.90
2723;DHT22;1369;53.216;10.396;2023-04-01T07:16:43;10.10;99.90
2723;DHT22;1369;53.216;10.396;2023-04-01T07:22:32;9.90;99.90
2723;DHT22;1369;53.216;10.396;2023-04-01T07:25:13;9.90;99.90
2723;DHT22;1369;53.216;10.396;2023-04-01T07:27:41;9.90;99.90
2723;DHT22;1369;53.216;10.396;2023-04-01T07:30:16;9.70;99.90
2723;DHT22;1369;53.216;10.396;2023-04-01T07:32:48;9.70;99.90
2723;DHT22;1369;53.216;10.396;2023-04-01T07:38:07;9.70;99.90
2723;DHT22;1369;53.216;10.396;2023-04-01T07:41:04;9.80;99.90
2723;DHT22;1369;53.216;10.396;2023-04-01T07:43:57;9.70;99.90
2723;DHT22;1369;53.216;10.396;2023-04-01T07:49:35;9.70;99.90
2723;DHT22;1369;53.216;10.396;2023-04-01T07:52:09;9.50;99.90
2723;DHT22;1369;53.216;10.396;2023-04-01T07:54:43;9.40;99.90
2723;DHT22;1369;53.216;10.396;2023-04-01T07:59:58;9.30;99.90
2723;DHT22;1369;53.216;10.396;2023-04-01T08:02:34;9.30;99.90
2723;DHT22;1369;53.216;10.396;2023-04-01T08:05:27;9.40;99.90
2723;DHT22;1369;53.216;10.396;2023-04-01T08:08:04;9.20;99.90
2723;DHT22;1369;53.216;10.396;2023-04-01T08:10:44;9.30;99.90
2723;DHT22;1369;53.216;10.396;2023-04-01T08:13:25;9.30;99.90
2723;DHT22;1369;53.216;10.396;2023-04-01T08:19:18;9.60;99.90
2723;DHT22;1369;53.216;10.396;2023-04-01T08:21:35;9.30;99.90
2723;DHT22;1369;53.216;10.396;2023-04-01T08:24:16;9.30;99.90
2723;DHT22;1369;53.216;10.396;2023-04-01T08:26:46;9.40;99.90
2723;DHT22;1369;53.216;10.396;2023-04-01T08:29:18;9.30;99.90
2723;DHT22;1369;53.216;10.396;2023-04-01T08:31:53;9.20;99.90
2723;DHT22;1369;53.216;10.396;2023-04-01T08:34:23;9.30;99.90
2723;DHT22;1369;53.216;10.396;2023-04-01T08:37:02;9.30;99.90
2723;DHT22;1369;53.216;10.396;2023-04-01T08:39:33;9.10;99.90
2723;DHT22;1369;53.216;10.396;2023-04-01T08:45:09;9.00;99.90
2723;DHT22;1369;53.216;10.396;2023-04-01T08:58:59;9.10;99.90
2723;DHT22;1369;53.216;10.396;2023-04-01T09:04:30;9.10;99.90
2723;DHT22;1369;53.216;10.396;2023-04-01T09:07:18;8.80;99.90
2723;DHT22;1369;53.216;10.396;2023-04-01T09:28:48;9.00;99.90
2723;DHT22;1369;53.216;10.396;2023-04-01T09:36:51;9.00;99.90
2723;DHT22;1369;53.216;10.396;2023-04-01T09:39:39;9.20;99.90
2723;DHT22;1369;53.216;10.396;2023-04-01T09:45:03;9.00;99.90
2723;DHT22;1369;53.216;10.396;2023-04-01T09:50:35;9.40;99.90
2723;DHT22;1369;53.216;10.396;2023-04-01T09:53:14;9.30;99.90
2723;DHT22;1369;53.216;10.396;2023-04-01T09:58:38;9.20;99.90
2723;DHT22;1369;53.216;10.396;2023-04-01T10:04:24;9.00;99.90
2723;DHT22;1369;53.216;10.396;2023-04-01T10:16:09;8.80;99.90
2723;DHT22;1369;53.216;10.396;2023-04-01T10:29:25;8.40;99.90
2723;DHT22;1369;53.216;10.396;2023-04-01T10:35:25;8.50;99.90
2723;DHT22;1369;53.216;10.396;2023-04-01T10:41:08;8.50;99.90
2723;DHT22;1369;53.216;10.396;2023-04-01T10:52:22;9.10;99.90
2723;DHT22;1369;53.216;10.396;2023-04-01T11:05:42;8.60;99.90
2723;DHT22;1369;53.216;10.396;2023-04-01T11:08:39;8.70;99.90
2723;DHT22;1369;53.216;10.396;2023-04-01T11:11:28;8.80;99.90
2723;DHT22;1369;53.216;10.396;2023-04-01T11:17:03;8.60;99.90
2723;DHT22;1369;53.216;10.396;2023-04-01T11:19:56;8.60;99.90
2723;DHT22;1369;53.216;10.396;2023-04-01T11:22:33;8.60;99.90
2723;DHT22;1369;53.216;10.396;2023-04-01T11:27:41;8.90;99.90
2723;DHT22;1369;53.216;10.396;2023-04-01T11:32:52;8.50;99.90
2723;DHT22;1369;53.216;10.396;2023-04-01T11:35:37;8.40;99.90
2723;DHT22;1369;53.216;10.396;2023-04-01T11:38:24;8.60;99.90
2723;DHT22;1369;53.216;10.396;2023-04-01T11:49:42;8.90;99.90
2723;DHT22;1369;53.216;10.396;2023-04-01T11:55:08;9.10;99.90
2723;DHT22;1369;53.216;10.396;2023-04-01T11:57:46;8.80;99.90
2723;DHT22;1369;53.216;10.396;2023-04-01T12:06:25;8.90;99.90
2723;DHT22;1369;53.216;10.396;2023-04-01T12:18:09;8.80;99.90
2723;DHT22;1369;53.216;10.396;2023-04-01T12:21:08;8.80;99.90
2723;DHT22;1369;53.216;10.396;2023-04-01T12:23:58;8.50;99.90
2723;DHT22;1369;53.216;10.396;2023-04-01T12:26:55;8.50;99.90
2723;DHT22;1369;53.216;10.396;2023-04-01T12:29:54;8.60;99.90
2723;DHT22;1369;53.216;10.396;2023-04-01T12:35:39;8.60;99.90
2723;DHT22;1369;53.216;10.396;2023-04-01T12:38:24;8.60;99.90
2723;DHT22;1369;53.216;10.396;2023-04-01T12:41:13;8.50;99.90
2723;DHT22;1369;53.216;10.396;2023-04-01T12:44:11;8.70;99.90
2723;DHT22;1369;53.216;10.396;2023-04-01T12:47:04;8.70;99.90
2723;DHT22;1369;53.216;10.396;2023-04-01T12:55:08;8.60;99.90
2723;DHT22;1369;53.216;10.396;2023-04-01T13:03:43;8.30;99.90
2723;DHT22;1369;53.216;10.396;2023-04-01T13:08:53;8.60;99.90
2723;DHT22;1369;53.216;10.396;2023-04-01T13:14:27;8.60;99.90
2723;DHT22;1369;53.216;10.396;2023-04-01T13:22:38;8.50;99.90
2723;DHT22;1369;53.216;10.396;2023-04-01T13:25:15;8.40;99.90
2723;DHT22;1369;53.216;10.396;2023-04-01T13:27:48;8.20;99.90
2723;DHT22;1369;53.216;10.396;2023-04-01T13:30:27;7.80;99.90
2723;DHT22;1369;53.216;10.396;2023-04-01T13:36:25;7.80;99.90
2723;DHT22;1369;53.216;10.396;2023-04-01T13:41:49;7.80;99.90
2723;DHT22;1369;53.216;10.396;2023-04-01T13:44:31;7.60;99.90
2723;DHT22;1369;53.216;10.396;2023-04-01T13:50:01;7.60;99.90
2723;DHT22;1369;53.216;10.396;2023-04-01T14:01:12;7.80;99.90
2723;DHT22;1369;53.216;10.396;2023-04-01T14:04:03;7.70;99.90
2723;DHT22;1369;53.216;10.396;2023-04-01T14:29:01;7.10;99.90
2723;DHT22;1369;53.216;10.396;2023-04-01T14:31:31;6.80;99.90
2723;DHT22;1369;53.216;10.396;2023-04-01T14:44:51;6.90;99.90
2723;DHT22;1369;53.216;10.396;2023-04-01T14:51:01;6.90;99.90
2723;DHT22;1369;53.216;10.396;2023-04-01T14:53:23;6.90;99.90
2723;DHT22;1369;53.216;10.396;2023-04-01T14:55:53;7.00;99.90
2723;DHT22;1369;53.216;10.396;2023-04-01T14:58:21;7.00;99.90
2723;DHT22;1369;53.216;10.396;2023-04-01T15:01:13;6.90;99.90
2723;DHT22;1369;53.216;10.396;2023-04-01T15:04:10;6.90;99.90
2723;DHT22;1369;53.216;10.396;2023-04-01T15:06:49;6.90;99.90
2723;DHT22;1369;53.216;10.396;2023-04-01T15:12:20;7.00;99.90
2723;DHT22;1369;53.216;10.396;2023-04-01T15:17:35;7.00;99.90
2723;DHT22;1369;53.216;10.396;2023-04-01T15:25:51;6.70;99.90
2723;DHT22;1369;53.216;10.396;2023-04-01T15:28:30;6.80;99.90
2723;DHT22;1369;53.216;10.396;2023-04-01T15:33:49;7.00;99.90
2723;DHT22;1369;53.216;10.396;2023-04-01T15:36:27;7.00;99.90
2723;DHT22;1369;53.216;10.396;2023-04-01T15:44:03;6.90;99.90
2723;DHT22;1369;53.216;10.396;2023-04-01T15:51:36;6.90;99.90
2723;DHT22;1369;53.216;10.396;2023-04-01T16:00:06;6.70;99.90
2723;DHT22;1369;53.216;10.396;2023-04-01T16:02:49;6.70;99.90
2723;DHT22;1369;53.216;10.396;2023-04-01T16:08:17;6.60;99.90
2723;DHT22;1369;53.216;10.396;2023-04-01T16:19:19;6.50;99.90
2723;DHT22;1369;53.216;10.396;2023-04-01T16:21:53;6.50;99.90
2723;DHT22;1369;53.216;10.396;2023-04-01T16:27:25;6.80;99.90
2723;DHT22;1369;53.216;10.396;2023-04-01T16:33:05;6.50;99.90
2723;DHT22;1369;53.216;10.396;2023-04-01T16:35:50;6.50;99.90
2723;DHT22;1369;53.216;10.396;2023-04-01T16:43:45;6.10;99.90
2723;DHT22;1369;53.216;10.396;2023-04-01T16:51:53;6.20;99.90
2723;DHT22;1369;53.216;10.396;2023-04-01T16:54:45;6.30;99.90
2723;DHT22;1369;53.216;10.396;2023-04-01T16:57:17;6.20;99.90
2723;DHT22;1369;53.216;10.396;2023-04-01T17:02:15;5.90;99.90
2723;DHT22;1369;53.216;10.396;2023-04-01T17:07:49;6.00;99.90
2723;DHT22;1369;53.216;10.396;2023-04-01T17:25:13;5.90;99.90
2723;DHT22;1369;53.216;10.396;2023-04-01T17:27:50;5.90;99.90
2723;DHT22;1369;53.216;10.396;2023-04-01T17:33:17;5.80;99.90
2723;DHT22;1369;53.216;10.396;2023-04-01T17:36:08;5.80;99.90
2723;DHT22;1369;53.216;10.396;2023-04-01T17:39:01;5.50;99.90
2723;DHT22;1369;53.216;10.396;2023-04-01T17:41:40;5.40;99.90
2723;DHT22;1369;53.216;10.396;2023-04-01T17:44:23;5.50;99.90
2723;DHT22;1369;53.216;10.396;2023-04-01T17:47:29;5.50;99.90
2723;DHT22;1369;53.216;10.396;2023-04-01T17:50:24;5.40;99.90
2723;DHT22;1369;53.216;10.396;2023-04-01T18:00:51;5.20;99.90
2723;DHT22;1369;53.216;10.396;2023-04-01T18:06:29;5.20;99.90
2723;DHT22;1369;53.216;10.396;2023-04-01T18:11:50;5.20;99.90
2723;DHT22;1369;53.216;10.396;2023-04-01T18:15:24;5.20;99.90
2723;DHT22;1369;53.216;10.396;2023-04-01T18:18:02;5.20;99.90
2723;DHT22;1369;53.216;10.396;2023-04-01T18:20:37;5.20;99.90
2723;DHT22;1369;53.216;10.396;2023-04-01T18:25:46;5.00;99.90
2723;DHT22;1369;53.216;10.396;2023-04-01T18:28:35;5.10;99.90
2723;DHT22;1369;53.216;10.396;2023-04-01T18:33:37;4.90;99.90
2723;DHT22;1369;53.216;10.396;2023-04-01T18:36:53;4.90;99.90
2723;DHT22;1369;53.216;10.396;2023-04-01T18:39:08;4.90;99.90
2723;DHT22;1369;53.216;10.396;2023-04-01T18:44:46;4.80;99.90
2723;DHT22;1369;53.216;10.396;2023-04-01T18:47:47;4.90;99.90
2723;DHT22;1369;53.216;10.396;2023-04-01T18:50:29;4.80;99.90
2723;DHT22;1369;53.216;10.396;2023-04-01T18:53:08;4.90;99.90
2723;DHT22;1369;53.216;10.396;2023-04-01T18:55:49;4.90;99.90
2723;DHT22;1369;53.216;10.396;2023-04-01T19:04:12;5.30;99.90
2723;DHT22;1369;53.216;10.396;2023-04-01T19:06:43;5.20;99.90
2723;DHT22;1369;53.216;10.396;2023-04-01T19:09:17;5.10;99.90
2723;DHT22;1369;53.216;10.396;2023-04-01T19:14:33;4.80;99.90
2723;DHT22;1369;53.216;10.396;2023-04-01T19:17:17;4.80;99.90
2723;DHT22;1369;53.216;10.396;2023-04-01T19:20:03;4.80;99.90
2723;DHT22;1369;53.216;10.396;2023-04-01T19:22:46;4.80;99.90
2723;DHT22;1369;53.216;10.396;2023-04-01T19:25:23;4.80;99.90
2723;DHT22;1369;53.216;10.396;2023-04-01T19:27:53;4.70;99.90
2723;DHT22;1369;53.216;10.396;2023-04-01T19:33:09;4.80;99.90
2723;DHT22;1369;53.216;10.396;2023-04-01T19:38:41;4.80;99.90
2723;DHT22;1369;53.216;10.396;2023-04-01T19:47:18;4.50;99.90
2723;DHT22;1369;53.216;10.396;2023-04-01T19:49:53;4.60;99.90
2723;DHT22;1369;53.216;10.396;2023-04-01T19:52:36;4.70;99.90
2723;DHT22;1369;53.216;10.396;2023-04-01T19:57:54;4.60;99.90
2723;DHT22;1369;53.216;10.396;2023-04-01T20:00:27;4.80;99.90
2723;DHT22;1369;53.216;10.396;2023-04-01T20:05:37;4.70;99.90
2723;DHT22;1369;53.216;10.396;2023-04-01T20:10:48;4.50;99.90
2723;DHT22;1369;53.216;10.396;2023-04-01T20:13:51;4.50;99.90
2723;DHT22;1369;53.216;10.396;2023-04-01T20:16:22;4.50;99.90
2723;DHT22;1369;53.216;10.396;2023-04-01T20:19:00;4.60;99.90
2723;DHT22;1369;53.216;10.396;2023-04-01T20:24:05;4.40;99.90
2723;DHT22;1369;53.216;10.396;2023-04-01T20:26:35;4.40;99.90
2723;DHT22;1369;53.216;10.396;2023-04-01T20:29:37;4.50;99.90
2723;DHT22;1369;53.216;10.396;2023-04-01T20:34:50;4.70;99.90
2723;DHT22;1369;53.216;10.396;2023-04-01T20:37:42;4.70;99.90
2723;DHT22;1369;53.216;10.396;2023-04-01T20:45:35;4.40;99.90
2723;DHT22;1369;53.216;10.396;2023-04-01T20:48:23;4.50;99.90
2723;DHT22;1369;53.216;10.396;2023-04-01T20:50:57;4.60;99.90
2723;DHT22;1369;53.216;10.396;2023-04-01T20:53:48;4.60;99.90
2723;DHT22;1369;53.216;10.396;2023-04-01T21:02:12;4.00;99.90
2723;DHT22;1369;53.216;10.396;2023-04-01T21:07:45;3.90;99.90
2723;DHT22;1369;53.216;10.396;2023-04-01T21:10:50;3.80;99.90
2723;DHT22;1369;53.216;10.396;2023-04-01T21:16:37;3.50;99.90
2723;DHT22;1369;53.216;10.396;2023-04-01T21:22:08;3.50;99.90
2723;DHT22;1369;53.216;10.396;2023-04-01T21:27:38;3.40;99.90
2723;DHT22;1369;53.216;10.396;2023-04-01T21:41:38;3.10;99.90
2723;DHT22;1369;53.216;10.396;2023-04-01T21:49:43;2.90;99.90
2723;DHT22;1369;53.216;10.396;2023-04-01T21:52:20;2.90;99.90
2723;DHT22;1369;53.216;10.396;2023-04-01T22:00:38;2.90;99.90
2723;DHT22;1369;53.216;10.396;2023-04-01T22:11:12;2.60;99.90
2723;DHT22;1369;53.216;10.396;2023-04-01T22:13:50;2.70;99.90
2723;DHT22;1369;53.216;10.396;2023-04-01T22:25:19;2.50;99.90
2723;DHT22;1369;53.216;10.396;2023-04-01T22:27:52;2.40;99.90
2723;DHT22;1369;53.216;10.396;2023-04-01T22:30:29;2.40;99.90
2723;DHT22;1369;53.216;10.396;2023-04-01T22:33:07;2.40;99.90
2723;DHT22;1369;53.216;10.396;2023-04-01T22:36:03;2.40;99.90
2723;DHT22;1369;53.216;10.396;2023-04-01T22:41:44;2.40;99.90
2723;DHT22;1369;53.216;10.396;2023-04-01T22:44:38;2.30;99.90
2723;DHT22;1369;53.216;10.396;2023-04-01T22:47:15;2.30;99.90
2723;DHT22;1369;53.216;10.396;2023-04-01T22:49:57;2.20;99.90
2723;DHT22;1369;53.216;10.396;2023-04-01T22:52:45;2.30;99.90
2723;DHT22;1369;53.216;10.396;2023-04-01T22:55:38;2.30;99.90
2723;DHT22;1369;53.216;10.396;2023-04-01T22:58:12;2.30;99.90
2723;DHT22;1369;53.216;10.396;2023-04-01T23:00:51;2.30;99.90
2723;DHT22;1369;53.216;10.396;2023-04-01T23:03:22;2.20;99.90
2723;DHT22;1369;53.216;10.396;2023-04-01T23:05:53;2.20;99.90
2723;DHT22;1369;53.216;10.396;2023-04-01T23:08:54;2.20;99.90
2723;DHT22;1369;53.216;10.396;2023-04-01T23:11:28;2.20;99.90
2723;DHT22;1369;53.216;10.396;2023-04-01T23:14:23;2.10;99.90
2723;DHT22;1369;53.216;10.396;2023-04-01T23:16:56;2.10;99.90
2723;DHT22;1369;53.216;10.396;2023-04-01T23:19:46;2.10;99.90
2723;DHT22;1369;53.216;10.396;2023-04-01T23:22:32;2.10;99.90
2723;DHT22;1369;53.216;10.396;2023-04-01T23:25:15;2.10;99.90
2723;DHT22;1369;53.216;10.396;2023-04-01T23:27:53;2.20;99.90
2723;DHT22;1369;53.216;10.396;2023-04-01T23:36:11;2.10;99.90
2723;DHT22;1369;53.216;10.396;2023-04-01T23:38:39;2.10;99.90
2723;DHT22;1369;53.216;10.396;2023-04-01T23:41:09;2.20;99.90
2723;DHT22;1369;53.216;10.396;2023-04-01T23:43:43;2.20;99.90
2723;DHT22;1369;53.216;10.396;2023-04-01T23:46:09;2.20;99.90
2723;DHT22;1369;53.216;10.396;2023-04-01T23:48:43;2.30;99.90
2723;DHT22;1369;53.216;10.396;2023-04-01T23:53:46;2.10;99.90
2723;DHT22;1369;53.216;10.396;2023-04-01T23:56:16;2.20;99.90
2723;DHT22;1369;53.216;10.396;2023-04-01T23:58:45;2.10;99.90
